BIS weather

Bismarck Municipal Airport
Bismarck, North Dakota, United States

Public forecast

Using degrees Fahrenheit for public forecast. Weather courtesy of forecast.io.

Current aviation weather report (METAR) for Bismarck Municipal Airport

Retrieved 2019/10/22 09:52 UTC (15 minutes ago):

KBIS 220952Z 31006KT 10SM CLR 01/M03 A2990 RMK AO2 SLP138 T00061028

Aviation forecast (TAF) for Bismarck Municipal Airport

Retrieved 2019/10/22 06:27 UTC (4 hours ago):

TAF KBIS 220525Z 2206/2306 31009KT P6SM SKC FM230000 VRB03KT P6SM SCT150 FM230200 00000KT P6SM BKN100 FM230500 00000KT P6SM -RA BKN050 OVC080